createdAt,value
2018-11-22T00:02:30.768Z,1.26
2018-11-22T00:04:57.706Z,1.21
2018-11-22T00:07:26.275Z,1.23
2018-11-22T00:10:14.529Z,1.22
2018-11-22T00:12:43.206Z,1.22
2018-11-22T00:15:13.601Z,1.21
2018-11-22T00:18:01.874Z,1.20
2018-11-22T00:20:30.530Z,1.24
2018-11-22T00:22:59.249Z,1.24
2018-11-22T00:25:27.812Z,1.19
2018-11-22T00:28:16.058Z,1.20
2018-11-22T00:30:44.732Z,1.20
2018-11-22T00:33:32.972Z,1.22
2018-11-22T00:36:01.702Z,1.24
2018-11-22T00:38:30.381Z,1.25
2018-11-22T00:40:59.033Z,1.26
2018-11-22T00:43:47.030Z,1.26
2018-11-22T00:46:15.732Z,1.25
2018-11-22T00:48:44.407Z,1.26
2018-11-22T00:51:32.694Z,1.28
2018-11-22T00:54:01.429Z,1.26
2018-11-22T00:56:30.389Z,1.25
2018-11-22T00:59:18.804Z,1.26
2018-11-22T01:01:47.344Z,1.28
2018-11-22T01:04:16.045Z,1.22
2018-11-22T01:06:44.714Z,1.25
2018-11-22T01:09:32.979Z,1.26
2018-11-22T01:12:01.739Z,1.25
2018-11-22T01:14:30.359Z,1.28
2018-11-22T01:16:58.992Z,1.29
2018-11-22T01:19:46.956Z,1.30
2018-11-22T01:22:15.795Z,1.31
2018-11-22T01:24:44.418Z,1.30
2018-11-22T01:27:32.687Z,1.30
2018-11-22T01:30:01.375Z,1.29
2018-11-22T01:32:32.567Z,1.30
2018-11-22T01:35:21.499Z,1.24
2018-11-22T01:37:50.242Z,1.26
2018-11-22T01:40:19.983Z,1.28
2018-11-22T01:43:08.235Z,1.27
2018-11-22T01:45:36.988Z,1.27
2018-11-22T01:48:05.719Z,1.27
2018-11-22T01:50:34.347Z,1.29
2018-11-22T01:53:22.599Z,1.31
2018-11-22T01:55:51.230Z,1.31
2018-11-22T01:58:19.937Z,1.33
2018-11-22T02:00:48.573Z,1.33
2018-11-22T02:03:36.836Z,1.33
2018-11-22T02:06:05.482Z,1.34
2018-11-22T02:08:34.190Z,1.31
2018-11-22T02:11:02.794Z,1.28
2018-11-22T02:13:51.075Z,1.28
2018-11-22T02:16:19.766Z,1.30
2018-11-22T02:18:48.442Z,1.28
2018-11-22T02:21:17.081Z,1.32
2018-11-22T02:24:05.503Z,1.33
2018-11-22T02:26:34.233Z,1.34
2018-11-22T02:29:02.892Z,1.35
2018-11-22T02:31:31.564Z,1.35
2018-11-22T02:34:19.849Z,1.37
2018-11-22T02:36:48.538Z,1.36
2018-11-22T02:39:17.220Z,1.38
2018-11-22T02:41:45.878Z,1.37
2018-11-22T02:44:34.168Z,1.39
2018-11-22T02:47:02.828Z,1.39
2018-11-22T02:49:31.426Z,1.35
2018-11-22T02:52:00.127Z,1.32
2018-11-22T02:54:48.479Z,1.33
2018-11-22T02:57:17.082Z,1.37
2018-11-22T02:59:45.714Z,1.38
2018-11-22T03:02:14.417Z,1.37
2018-11-22T03:05:02.637Z,1.36
2018-11-22T03:07:31.404Z,1.34
2018-11-22T03:10:00.089Z,1.35
2018-11-22T03:12:28.749Z,1.36
2018-11-22T03:15:17.032Z,1.39
2018-11-22T03:17:45.700Z,1.40
2018-11-22T03:20:14.402Z,1.42
2018-11-22T03:22:43.925Z,1.44
2018-11-22T03:25:32.222Z,1.46
2018-11-22T03:28:00.957Z,1.44
2018-11-22T03:30:29.574Z,1.46
2018-11-22T03:32:58.248Z,1.45
2018-11-22T03:35:46.494Z,1.45
2018-11-22T03:38:15.269Z,1.43
2018-11-22T03:40:44.358Z,1.43
2018-11-22T03:43:13.070Z,1.45
2018-11-22T03:46:01.329Z,1.45
2018-11-22T03:48:30.070Z,1.46
2018-11-22T03:50:58.693Z,1.47
2018-11-22T03:53:27.321Z,1.48
2018-11-22T03:56:15.324Z,1.49
2018-11-22T03:58:43.986Z,1.49
2018-11-22T04:01:12.714Z,1.47
2018-11-22T04:04:00.942Z,1.47
2018-11-22T04:06:29.703Z,1.49
2018-11-22T04:08:58.415Z,1.47
2018-11-22T04:11:27.090Z,1.47
2018-11-22T04:14:15.307Z,1.48
2018-11-22T04:16:44.002Z,1.48
2018-11-22T04:19:12.639Z,1.51
2018-11-22T04:22:00.584Z,1.48
2018-11-22T04:24:29.279Z,1.48
2018-11-22T04:26:57.947Z,1.46
2018-11-22T04:29:28.937Z,1.49
2018-11-22T04:32:17.188Z,1.49
2018-11-22T04:34:45.887Z,1.49
2018-11-22T04:37:14.631Z,1.51
2018-11-22T04:39:43.279Z,1.51
2018-11-22T04:42:31.555Z,1.52
2018-11-22T04:45:00.200Z,1.52
2018-11-22T04:47:28.836Z,1.52
2018-11-22T04:49:57.504Z,1.51
2018-11-22T04:52:45.776Z,1.47
2018-11-22T04:55:14.474Z,1.48
2018-11-22T04:57:43.123Z,1.48
2018-11-22T05:00:17.014Z,1.47
2018-11-22T05:02:45.935Z,1.44
2018-11-22T05:05:33.942Z,1.43
2018-11-22T05:08:02.569Z,1.43
2018-11-22T05:10:31.269Z,1.43
2018-11-22T05:12:59.973Z,1.45
2018-11-22T05:15:48.258Z,1.46
2018-11-22T05:18:17.078Z,1.48
2018-11-22T05:20:45.736Z,1.46
2018-11-22T05:23:14.412Z,1.48
2018-11-22T05:26:02.678Z,1.49
2018-11-22T05:28:31.320Z,1.48
2018-11-22T05:30:59.997Z,1.49
2018-11-22T05:33:28.645Z,1.48
2018-11-22T05:36:16.913Z,1.49
2018-11-22T05:38:45.620Z,1.47
2018-11-22T05:41:14.315Z,1.49
2018-11-22T05:43:43.023Z,1.49
2018-11-22T05:46:31.247Z,1.49
2018-11-22T05:48:59.950Z,1.47
2018-11-22T05:51:28.564Z,1.49
2018-11-22T05:53:57.223Z,1.48
2018-11-22T05:56:45.489Z,1.48
2018-11-22T05:59:14.120Z,1.48
2018-11-22T06:01:42.784Z,1.46
2018-11-22T06:04:11.415Z,1.44
2018-11-22T06:06:59.686Z,1.40
2018-11-22T06:09:28.344Z,1.40
2018-11-22T06:11:57.027Z,1.39
2018-11-22T06:14:25.654Z,1.41
2018-11-22T06:17:14.006Z,1.41
2018-11-22T06:19:42.634Z,1.42
2018-11-22T06:22:11.410Z,1.43
2018-11-22T06:24:40.013Z,1.45
2018-11-22T06:27:28.281Z,1.47
2018-11-22T06:29:56.998Z,1.46
2018-11-22T06:32:25.654Z,1.46
2018-11-22T06:34:54.323Z,1.47
2018-11-22T06:37:42.586Z,1.48
2018-11-22T06:40:13.655Z,1.46
2018-11-22T06:42:42.877Z,1.45
2018-11-22T06:45:16.748Z,1.47
2018-11-22T06:47:45.444Z,1.48
2018-11-22T06:50:16.878Z,1.51
2018-11-22T06:53:03.282Z,1.51
2018-11-22T06:55:33.538Z,1.53
2018-11-22T06:58:02.249Z,1.53
2018-11-22T07:00:32.129Z,1.55
2018-11-22T07:03:20.384Z,1.53
2018-11-22T07:05:49.124Z,1.55
2018-11-22T07:08:37.014Z,1.58
2018-11-22T07:11:05.935Z,1.60
2018-11-22T07:13:54.129Z,1.62
2018-11-22T07:16:22.885Z,1.63
2018-11-22T07:21:58.687Z,1.64
2018-11-22T07:24:29.826Z,1.66
2018-11-22T07:27:20.135Z,1.69
2018-11-22T07:29:48.956Z,1.69
2018-11-22T07:32:17.539Z,1.65
2018-11-22T07:35:06.995Z,1.66
2018-11-22T07:37:35.688Z,1.69
2018-11-22T07:40:04.687Z,1.72
2018-11-22T07:42:35.551Z,1.72
2018-11-22T07:45:25.432Z,1.73
2018-11-22T07:47:57.985Z,1.75
2018-11-22T07:50:26.748Z,1.74
2018-11-22T07:53:15.035Z,1.76
2018-11-22T07:55:43.692Z,1.79
2018-11-22T07:58:12.355Z,1.82
2018-11-22T08:01:00.644Z,1.81
2018-11-22T08:03:29.358Z,1.81
2018-11-22T08:05:57.982Z,1.84
2018-11-22T08:08:26.675Z,1.88
2018-11-22T08:11:17.641Z,1.90
2018-11-22T08:13:46.365Z,1.94
2018-11-22T08:16:15.034Z,1.95
2018-11-22T08:18:45.503Z,1.94
2018-11-22T08:21:38.242Z,1.95
2018-11-22T08:24:02.482Z,1.97
2018-11-22T08:26:31.188Z,2.00
2018-11-22T08:28:59.878Z,2.02
2018-11-22T08:31:48.126Z,2.04
2018-11-22T08:34:16.937Z,2.07
2018-11-22T08:36:45.601Z,2.13
2018-11-22T08:39:14.235Z,2.14
2018-11-22T08:42:12.995Z,2.18
2018-11-22T08:44:43.790Z,2.20
2018-11-22T08:47:51.372Z,2.28
2018-11-22T08:50:38.988Z,2.31
2018-11-22T08:53:07.704Z,2.35
2018-11-22T08:55:55.714Z,2.32
2018-11-22T08:58:27.180Z,2.31
2018-11-22T09:00:58.751Z,2.31
2018-11-22T09:04:05.924Z,2.34
2018-11-22T09:06:53.984Z,2.32
2018-11-22T09:09:24.015Z,2.29
2018-11-22T09:12:12.225Z,2.30
2018-11-22T09:14:59.908Z,2.34
2018-11-22T09:17:29.084Z,2.35
2018-11-22T09:20:37.314Z,2.34
2018-11-22T09:23:05.931Z,2.38
2018-11-22T09:25:37.304Z,2.40
2018-11-22T09:28:45.013Z,2.32
2018-11-22T09:31:13.701Z,2.31
2018-11-22T09:33:42.377Z,2.32
2018-11-22T09:36:30.610Z,2.31
2018-11-22T09:38:59.724Z,2.34
2018-11-22T09:41:28.388Z,2.37
2018-11-22T09:44:16.582Z,2.37
2018-11-22T09:46:45.270Z,2.40
2018-11-22T09:49:16.405Z,2.45
2018-11-22T09:51:45.200Z,2.48
2018-11-22T09:57:21.096Z,2.48
2018-11-22T09:59:49.770Z,2.45
2018-11-22T10:02:38.039Z,2.46
2018-11-22T10:05:09.617Z,2.45
2018-11-22T10:07:38.057Z,2.43
2018-11-22T10:10:08.255Z,2.47
2018-11-22T10:12:56.566Z,2.52
2018-11-22T10:15:27.237Z,2.54
2018-11-22T10:17:55.923Z,2.52
2018-11-22T10:20:25.716Z,2.57
2018-11-22T10:23:13.956Z,2.55
2018-11-22T10:25:42.684Z,2.57
2018-11-22T10:28:11.388Z,2.63
2018-11-22T10:30:40.032Z,2.57
2018-11-22T10:33:28.284Z,2.56
2018-11-22T10:35:56.961Z,2.59
2018-11-22T10:38:26.221Z,2.59
2018-11-22T10:40:54.864Z,2.64
2018-11-22T10:43:43.102Z,2.68
2018-11-22T10:46:11.861Z,2.70
2018-11-22T10:48:43.223Z,2.69
2018-11-22T10:54:18.922Z,2.73
2018-11-22T10:57:06.925Z,2.72
2018-11-22T10:59:36.059Z,2.77
2018-11-22T11:02:43.024Z,2.84
2018-11-22T11:05:30.716Z,2.85
2018-11-22T11:08:01.605Z,2.88
2018-11-22T11:10:51.050Z,2.88
2018-11-22T11:13:19.772Z,2.94
2018-11-22T11:15:48.397Z,2.88
2018-11-22T11:18:16.998Z,2.92
2018-11-22T11:23:34.112Z,2.98
2018-11-22T11:26:02.805Z,2.99
2018-11-22T11:28:51.088Z,3.04
2018-11-22T11:31:19.746Z,3.07
2018-11-22T11:33:48.374Z,3.06
2018-11-22T11:36:36.496Z,3.03
2018-11-22T11:39:08.171Z,2.98
2018-11-22T11:41:39.781Z,2.98
2018-11-22T11:44:46.968Z,2.94
2018-11-22T11:47:18.601Z,2.93
2018-11-22T11:49:45.494Z,2.93
2018-11-22T11:52:33.753Z,2.89
2018-11-22T11:55:02.450Z,2.95
2018-11-22T11:57:31.249Z,2.98
2018-11-22T11:59:59.936Z,2.96
2018-11-22T12:02:50.211Z,2.99
2018-11-22T12:05:19.980Z,3.01
2018-11-22T12:07:51.010Z,3.02
2018-11-22T12:10:39.263Z,3.01
2018-11-22T12:13:08.082Z,3.04
2018-11-22T12:15:36.780Z,3.04
2018-11-22T12:18:05.563Z,3.04
2018-11-22T12:20:54.048Z,3.05
2018-11-22T12:23:22.718Z,3.06
2018-11-22T12:25:51.402Z,3.09
2018-11-22T12:28:20.037Z,3.10
2018-11-22T12:31:08.348Z,3.09
2018-11-22T12:33:42.766Z,3.11
2018-11-22T12:36:33.758Z,3.11
2018-11-22T12:39:02.489Z,3.11
2018-11-22T12:41:31.137Z,3.11
2018-11-22T12:44:26.045Z,3.11
2018-11-22T12:46:56.050Z,3.12
2018-11-22T12:49:24.751Z,3.13
2018-11-22T12:52:14.132Z,3.18
2018-11-22T12:54:42.029Z,3.18
2018-11-22T12:57:10.795Z,3.19
2018-11-22T12:59:39.376Z,3.22
2018-11-22T13:02:27.706Z,3.23
2018-11-22T13:04:56.391Z,3.27
2018-11-22T13:07:47.327Z,3.29
2018-11-22T13:10:17.707Z,3.33
2018-11-22T13:12:47.503Z,3.39
2018-11-22T13:15:37.803Z,3.39
2018-11-22T13:18:06.612Z,3.38
2018-11-22T13:20:35.369Z,3.40
2018-11-22T13:23:23.613Z,3.44
2018-11-22T13:25:52.313Z,3.47
2018-11-22T13:28:21.028Z,3.49
2018-11-22T13:30:50.102Z,3.51
2018-11-22T13:33:38.339Z,3.51
2018-11-22T13:36:07.114Z,3.53
2018-11-22T13:38:35.706Z,3.52
2018-11-22T13:41:06.918Z,3.55
2018-11-22T13:43:55.133Z,3.54
2018-11-22T13:49:14.524Z,3.48
2018-11-22T13:52:02.731Z,3.44
2018-11-22T13:54:31.423Z,3.44
2018-11-22T13:57:00.105Z,3.39
2018-11-22T13:59:48.275Z,3.38
2018-11-22T14:05:26.040Z,3.35
2018-11-22T14:08:32.981Z,3.34
2018-11-22T14:11:01.696Z,3.30
2018-11-22T14:13:32.024Z,3.29
2018-11-22T14:16:20.332Z,3.26
2018-11-22T14:18:52.997Z,3.23
2018-11-22T14:21:22.019Z,3.27
2018-11-22T14:24:10.296Z,3.28
2018-11-22T14:27:03.376Z,3.24
2018-11-22T14:29:32.182Z,3.23
2018-11-22T14:32:20.538Z,3.23
2018-11-22T14:35:00.541Z,3.23
2018-11-22T14:37:27.901Z,3.24
2018-11-22T14:40:19.684Z,3.24
2018-11-22T14:42:49.257Z,3.22
2018-11-22T14:45:18.006Z,3.20
2018-11-22T14:48:06.125Z,3.19
2018-11-22T14:50:54.957Z,3.18
2018-11-22T14:53:23.755Z,3.15
2018-11-22T14:56:11.725Z,3.15
2018-11-22T14:59:18.986Z,3.14
2018-11-22T15:01:47.677Z,3.13
2018-11-22T15:04:38.496Z,3.12
2018-11-22T15:07:10.029Z,3.11
2018-11-22T15:09:38.677Z,3.08
2018-11-22T15:12:26.931Z,3.07
2018-11-22T15:15:16.574Z,3.04
2018-11-22T15:17:48.098Z,3.03
2018-11-22T15:20:36.365Z,3.01
2018-11-22T15:23:05.136Z,2.98
2018-11-22T15:25:33.742Z,2.97
2018-11-22T15:28:02.418Z,2.95
2018-11-22T15:30:50.674Z,2.96
2018-11-22T15:33:19.406Z,2.92
2018-11-22T15:35:48.050Z,2.87
2018-11-22T15:38:16.721Z,2.86
2018-11-22T15:41:05.144Z,2.83
2018-11-22T15:43:46.385Z,2.81
2018-11-22T15:46:17.561Z,2.79
2018-11-22T15:49:05.755Z,2.79
2018-11-22T15:51:34.493Z,2.80
2018-11-22T15:54:03.183Z,2.81
2018-11-22T15:56:51.435Z,2.79
2018-11-22T15:59:20.108Z,2.78
2018-11-22T16:01:50.989Z,2.77
2018-11-22T16:04:19.633Z,2.77
2018-11-22T16:07:07.860Z,2.78
2018-11-22T16:09:36.542Z,2.77
2018-11-22T16:12:44.320Z,2.73
2018-11-22T16:15:37.708Z,2.72
2018-11-22T16:18:06.703Z,2.72
2018-11-22T16:20:54.970Z,2.72
2018-11-22T16:23:25.835Z,2.71
2018-11-22T16:25:54.469Z,2.70
2018-11-22T16:28:23.164Z,2.70
2018-11-22T16:31:11.485Z,2.70
2018-11-22T16:33:40.160Z,2.68
2018-11-22T16:39:08.988Z,2.68
2018-11-22T16:44:27.891Z,2.61
2018-11-22T16:47:15.829Z,2.60
2018-11-22T16:49:44.587Z,2.59
2018-11-22T16:52:13.188Z,2.58
2018-11-22T16:55:24.457Z,2.59
2018-11-22T16:57:56.716Z,2.59
2018-11-22T17:00:27.239Z,2.56
2018-11-22T17:03:15.493Z,2.56
2018-11-22T17:05:45.011Z,2.53
2018-11-22T17:08:16.182Z,2.53
2018-11-22T17:10:44.837Z,2.53
2018-11-22T17:13:33.127Z,2.52
2018-11-22T17:16:02.056Z,2.53
2018-11-22T17:18:52.810Z,2.50
2018-11-22T17:21:19.691Z,2.51
2018-11-22T17:23:48.370Z,2.50
2018-11-22T17:26:36.606Z,2.49
2018-11-22T17:29:05.379Z,2.51
2018-11-22T17:31:36.506Z,2.52
2018-11-22T17:34:07.664Z,2.51
2018-11-22T17:36:55.965Z,2.49
2018-11-22T17:42:12.641Z,2.49
2018-11-22T17:45:04.379Z,2.50
2018-11-22T17:47:31.851Z,2.47
2018-11-22T17:50:00.418Z,2.47
2018-11-22T17:52:48.873Z,2.48
2018-11-22T17:58:24.624Z,2.42
2018-11-22T18:01:31.856Z,2.41
2018-11-22T18:04:03.635Z,2.44
2018-11-22T18:06:34.802Z,2.44
2018-11-22T18:09:23.094Z,2.43
2018-11-22T18:14:53.315Z,2.42
2018-11-22T18:17:41.334Z,2.42
2018-11-22T18:20:30.456Z,2.40
2018-11-22T18:26:20.162Z,2.39
2018-11-22T18:28:48.891Z,2.38
2018-11-22T18:31:39.278Z,2.40
2018-11-22T18:34:07.950Z,2.41
2018-11-22T18:36:36.636Z,2.38
2018-11-22T18:39:07.858Z,2.37
2018-11-22T18:41:56.110Z,2.36
2018-11-22T18:44:24.877Z,2.37
2018-11-22T18:46:53.516Z,2.37
2018-11-22T18:49:22.200Z,2.35
2018-11-22T18:52:10.402Z,2.35
2018-11-22T18:54:54.920Z,2.35
2018-11-22T18:57:23.622Z,2.33
2018-11-22T19:00:35.206Z,2.35
2018-11-22T19:03:05.530Z,2.35
2018-11-22T19:05:34.283Z,2.38
2018-11-22T19:08:23.673Z,2.36
2018-11-22T19:10:51.187Z,2.36
2018-11-22T19:16:19.185Z,2.36
2018-11-22T19:19:06.830Z,2.35
2018-11-22T19:21:40.974Z,2.36
2018-11-22T19:24:06.818Z,2.36
2018-11-22T19:26:35.660Z,2.35
2018-11-22T19:29:04.287Z,2.35
2018-11-22T19:31:52.518Z,2.35
2018-11-22T19:34:21.217Z,2.35
2018-11-22T19:36:49.847Z,2.35
2018-11-22T19:39:38.144Z,2.35
2018-11-22T19:42:06.862Z,2.37
2018-11-22T19:44:38.287Z,2.37
2018-11-22T19:47:26.679Z,2.37
2018-11-22T19:50:18.937Z,2.36
2018-11-22T19:52:48.456Z,2.34
2018-11-22T19:55:37.504Z,2.33
2018-11-22T19:58:10.104Z,2.34
2018-11-22T20:00:37.617Z,2.36
2018-11-22T20:03:28.534Z,2.35
2018-11-22T20:05:59.741Z,2.33
2018-11-22T20:08:28.436Z,2.33
2018-11-22T20:11:18.286Z,2.31
2018-11-22T20:13:46.941Z,2.31
2018-11-22T20:16:15.809Z,2.31
2018-11-22T20:18:46.840Z,2.30
2018-11-22T20:21:36.276Z,2.29
2018-11-22T20:24:03.941Z,2.29
2018-11-22T20:26:52.253Z,2.29
2018-11-22T20:29:21.193Z,2.27
2018-11-22T20:32:09.106Z,2.29
2018-11-22T20:34:48.012Z,2.29
2018-11-22T20:37:16.774Z,2.30
2018-11-22T20:40:05.014Z,2.32
2018-11-22T20:48:13.034Z,2.32
2018-11-22T20:50:41.706Z,2.32
2018-11-22T20:53:32.049Z,2.29
2018-11-22T20:55:59.778Z,2.30
2018-11-22T20:58:46.965Z,2.29
2018-11-22T21:01:15.690Z,2.28
2018-11-22T21:03:44.325Z,2.29
2018-11-22T21:06:13.088Z,2.31
2018-11-22T21:09:01.355Z,2.27
2018-11-22T21:11:29.985Z,2.26
2018-11-22T21:13:58.676Z,2.24
2018-11-22T21:19:34.548Z,2.24
2018-11-22T21:22:03.275Z,2.25
2018-11-22T21:24:51.530Z,2.24
2018-11-22T21:27:20.156Z,2.24
2018-11-22T21:29:48.795Z,2.22
2018-11-22T21:32:17.445Z,2.25
2018-11-22T21:35:08.751Z,2.24
2018-11-22T21:37:57.621Z,2.25
2018-11-22T21:40:26.897Z,2.26
2018-11-22T21:43:34.158Z,2.29
2018-11-22T21:46:21.849Z,2.27
2018-11-22T21:48:50.501Z,2.29
2018-11-22T21:51:39.507Z,2.29
2018-11-22T21:54:07.118Z,2.31
2018-11-22T21:56:35.773Z,2.29
2018-11-22T21:59:24.025Z,2.29
2018-11-22T22:04:59.677Z,2.26
2018-11-22T22:08:07.029Z,2.26
2018-11-22T22:10:35.789Z,2.26
2018-11-22T22:13:04.508Z,2.23
2018-11-22T22:15:52.767Z,2.24
2018-11-22T22:18:21.434Z,2.24
2018-11-22T22:20:50.079Z,2.24
2018-11-22T22:23:20.920Z,2.27
2018-11-22T22:26:09.205Z,2.27
2018-11-22T22:28:37.907Z,2.27
2018-11-22T22:31:06.600Z,2.27
2018-11-22T22:33:37.818Z,2.26
2018-11-22T22:36:26.048Z,2.24
2018-11-22T22:38:54.826Z,2.20
2018-11-22T22:41:23.487Z,2.19
2018-11-22T22:43:52.156Z,2.23
2018-11-22T22:46:47.925Z,2.23
2018-11-22T22:49:18.737Z,2.22
2018-11-22T22:51:51.936Z,2.22
2018-11-22T22:54:42.213Z,2.19
2018-11-22T22:57:10.924Z,2.17
2018-11-22T22:59:39.572Z,2.17
2018-11-22T23:02:27.826Z,2.14
2018-11-22T23:04:56.442Z,2.13
2018-11-22T23:07:25.148Z,2.17
2018-11-22T23:10:13.113Z,2.15
2018-11-22T23:12:41.744Z,2.15
2018-11-22T23:15:13.068Z,2.12
2018-11-22T23:17:42.070Z,2.10
2018-11-22T23:20:49.254Z,2.11
2018-11-22T23:23:17.895Z,2.12
2018-11-22T23:25:46.566Z,2.11
2018-11-22T23:28:34.828Z,2.09
2018-11-22T23:31:03.514Z,2.08
2018-11-22T23:33:32.197Z,2.09
2018-11-22T23:36:00.867Z,2.09
2018-11-22T23:38:49.095Z,2.08
2018-11-22T23:41:17.813Z,2.10
2018-11-22T23:43:46.559Z,2.13
2018-11-22T23:46:15.231Z,2.15
2018-11-22T23:49:03.234Z,2.13
2018-11-22T23:51:31.938Z,2.10
2018-11-22T23:54:00.687Z,2.09
2018-11-22T23:56:48.971Z,2.06
2018-11-22T23:59:17.662Z,2.05
